createdAt,value
2019-04-21T00:00:52.269Z,98767.08
2019-04-21T00:01:52.024Z,98769.44
2019-04-21T00:02:59.605Z,98772.92
2019-04-21T00:04:11.387Z,98771.75
2019-04-21T00:05:24.982Z,98770.27
2019-04-21T00:06:32.405Z,98770.46
2019-04-21T00:07:32.076Z,98773.06
2019-04-21T00:08:56.083Z,98768.52
2019-04-21T00:09:45.611Z,98768.52
2019-04-21T00:10:51.343Z,98767.31
2019-04-21T00:11:59.869Z,98763.93
2019-04-21T00:12:53.503Z,98760.23
2019-04-21T00:13:56.378Z,98760.23
2019-04-21T00:14:57.902Z,98761.29
2019-04-21T00:15:57.857Z,98752.91
2019-04-21T00:17:05.077Z,98756.88
2019-04-21T00:18:10.949Z,98751.33
2019-04-21T00:19:36.622Z,98751.33
2019-04-21T00:20:44.198Z,98758.76
2019-04-21T00:21:47.836Z,98747.39
2019-04-21T00:22:58.815Z,98750.84
2019-04-21T00:24:23.279Z,98750.84
2019-04-21T00:25:32.046Z,98745.70
2019-04-21T00:26:37.634Z,98747.42
2019-04-21T00:27:41.322Z,98743.62
2019-04-21T00:28:53.307Z,98740.50
2019-04-21T00:29:51.766Z,98740.50
2019-04-21T00:30:58.713Z,98744.92
2019-04-21T00:31:57.966Z,98744.92
2019-04-21T00:32:56.360Z,98737.95
2019-04-21T00:33:53.048Z,98732.27
2019-04-21T00:35:03.021Z,98735.35
2019-04-21T00:36:10.225Z,98737.78
2019-04-21T00:37:16.321Z,98723.74
2019-04-21T00:38:32.625Z,98732.93
2019-04-21T00:39:43.327Z,98732.93
2019-04-21T00:40:46.395Z,98725.63
2019-04-21T00:41:50.870Z,98728.20
2019-04-21T00:42:50.348Z,98731.38
2019-04-21T00:43:49.495Z,98731.38
2019-04-21T00:45:00.823Z,98721.35
2019-04-21T00:45:57.392Z,98718.33
2019-04-21T00:47:05.413Z,98727.03
2019-04-21T00:48:19.198Z,98727.03
2019-04-21T00:49:19.535Z,98724.64
2019-04-21T00:50:33.692Z,98721.64
2019-04-21T00:51:42.024Z,98721.64
2019-04-21T00:53:00.182Z,98717.84
2019-04-21T00:54:13.329Z,98717.20
2019-04-21T00:55:20.259Z,98712.27
2019-04-21T00:56:15.625Z,98712.91
2019-04-21T00:57:27.733Z,98712.48
2019-04-21T00:58:30.171Z,98713.11
2019-04-21T00:59:33.513Z,98715.53
2019-04-21T01:00:35.025Z,98712.72
2019-04-21T01:01:38.248Z,98709.84
2019-04-21T01:02:53.322Z,98705.73
2019-04-21T01:03:51.913Z,98711.75
2019-04-21T01:05:00.130Z,98710.42
2019-04-21T01:05:57.581Z,98711.00
2019-04-21T01:07:05.548Z,98709.88
2019-04-21T01:08:04.921Z,98709.88
2019-04-21T01:09:10.844Z,98702.19
2019-04-21T01:10:06.367Z,98702.19
2019-04-21T01:11:18.862Z,98704.77
2019-04-21T01:12:29.800Z,98704.77
2019-04-21T01:13:33.327Z,98702.80
2019-04-21T01:14:37.290Z,98698.39
2019-04-21T01:15:47.427Z,98701.69
2019-04-21T01:16:45.892Z,98705.55
2019-04-21T01:17:46.258Z,98695.73
2019-04-21T01:18:51.833Z,98695.73
2019-04-21T01:19:50.701Z,98698.61
2019-04-21T01:20:39.065Z,98698.61
2019-04-21T01:21:42.167Z,98698.98
2019-04-21T01:22:44.983Z,98697.37
2019-04-21T01:23:48.624Z,98697.37
2019-04-21T01:25:01.821Z,98694.67
2019-04-21T01:26:13.113Z,98694.67
2019-04-21T01:27:11.332Z,98689.67
2019-04-21T01:28:21.472Z,98689.67
2019-04-21T01:29:37.357Z,98683.98
2019-04-21T01:30:34.635Z,98682.93
2019-04-21T01:31:36.300Z,98686.06
2019-04-21T01:32:48.122Z,98686.06
2019-04-21T01:33:50.674Z,98693.23
2019-04-21T01:34:58.296Z,98688.39
2019-04-21T01:36:02.519Z,98688.39
2019-04-21T01:36:58.693Z,98685.66
2019-04-21T01:38:14.219Z,98686.48
2019-04-21T01:39:22.452Z,98679.00
2019-04-21T01:40:26.037Z,98677.06
2019-04-21T01:41:28.155Z,98677.06
2019-04-21T01:42:28.515Z,98678.05
2019-04-21T01:43:27.748Z,98684.96
2019-04-21T01:44:54.394Z,98680.69
2019-04-21T01:45:40.051Z,98672.59
2019-04-21T01:46:40.901Z,98672.59
2019-04-21T01:47:46.319Z,98680.29
2019-04-21T01:48:49.402Z,98670.41
2019-04-21T01:49:52.369Z,98670.41
2019-04-21T01:51:03.775Z,98672.24
2019-04-21T01:52:18.068Z,98666.95
2019-04-21T01:53:24.178Z,98675.23
2019-04-21T01:54:43.224Z,98669.61
2019-04-21T01:56:11.684Z,98670.02
2019-04-21T01:57:52.777Z,98671.30
2019-04-21T01:58:48.257Z,98671.30
2019-04-21T01:59:55.272Z,98673.12
2019-04-21T02:01:05.768Z,98674.81
2019-04-21T02:02:19.405Z,98669.39
2019-04-21T02:03:36.217Z,98674.27
2019-04-21T02:04:34.718Z,98674.27
2019-04-21T02:05:36.359Z,98666.77
2019-04-21T02:06:36.239Z,98666.77
2019-04-21T02:07:40.891Z,98667.48
2019-04-21T02:08:41.833Z,98665.01
2019-04-21T02:09:50.984Z,98670.31
2019-04-21T02:10:56.018Z,98666.85
2019-04-21T02:12:01.037Z,98666.85
2019-04-21T02:13:03.213Z,98664.46
2019-04-21T02:14:09.844Z,98661.89
2019-04-21T02:15:36.116Z,98661.89
2019-04-21T02:16:23.441Z,98658.81
2019-04-21T02:17:29.224Z,98659.56
2019-04-21T02:18:27.674Z,98664.09
2019-04-21T02:19:31.312Z,98659.16
2019-04-21T02:20:32.662Z,98656.25
2019-04-21T02:21:41.034Z,98657.56
2019-04-21T02:23:06.711Z,98659.56
2019-04-21T02:24:01.778Z,98657.92
2019-04-21T02:25:00.976Z,98657.92
2019-04-21T02:26:08.137Z,98659.30
2019-04-21T02:27:12.719Z,98652.74
2019-04-21T02:28:22.444Z,98662.31
2019-04-21T02:29:25.063Z,98669.65
2019-04-21T02:30:40.055Z,98660.25
2019-04-21T02:31:36.106Z,98661.77
2019-04-21T02:32:44.266Z,98661.86
2019-04-21T02:34:00.328Z,98661.86
2019-04-21T02:36:00.566Z,98653.67
2019-04-21T02:40:19.100Z,98650.41
2019-04-21T02:41:12.881Z,98644.85
2019-04-21T02:42:19.886Z,98644.85
2019-04-21T02:43:50.121Z,98646.83
2019-04-21T02:44:37.349Z,98646.28
2019-04-21T02:46:50.373Z,98643.52
2019-04-21T02:48:04.466Z,98647.53
2019-04-21T02:48:55.501Z,98641.04
2019-04-21T02:51:03.807Z,98639.61
2019-04-21T02:52:14.293Z,98635.35
2019-04-21T02:53:21.235Z,98629.69
2019-04-21T02:55:25.583Z,98636.14
2019-04-21T02:56:48.226Z,98632.91
2019-04-21T02:57:39.682Z,98633.52
2019-04-21T03:01:37.786Z,98630.94
2019-04-21T03:02:54.723Z,98629.83
2019-04-21T03:04:11.205Z,98625.42
2019-04-21T03:05:42.441Z,98625.42
2019-04-21T03:09:15.975Z,98619.82
2019-04-21T03:11:17.401Z,98618.55
2019-04-21T03:13:21.688Z,98619.38
2019-04-21T03:15:29.318Z,98615.91
2019-04-21T03:16:28.417Z,98612.86
2019-04-21T03:17:44.063Z,98612.15
2019-04-21T03:18:48.592Z,98613.77
2019-04-21T03:19:55.527Z,98614.25
2019-04-21T03:21:00.962Z,98614.25
2019-04-21T03:21:57.328Z,98615.98
2019-04-21T03:23:15.389Z,98613.26
2019-04-21T03:24:12.114Z,98604.88
2019-04-21T03:26:19.910Z,98610.06
2019-04-21T03:27:35.619Z,98610.06
2019-04-21T03:28:22.313Z,98606.84
2019-04-21T03:29:39.523Z,98595.81
2019-04-21T03:37:14.029Z,98596.93
2019-04-21T03:39:13.739Z,98595.24
2019-04-21T03:40:25.979Z,98592.07
2019-04-21T03:41:18.858Z,98592.07
2019-04-21T03:42:42.563Z,98596.23
2019-04-21T03:43:26.808Z,98592.02
2019-04-21T03:44:37.087Z,98597.19
2019-04-21T03:47:46.448Z,98593.66
2019-04-21T03:48:58.335Z,98593.66
2019-04-21T03:50:08.558Z,98592.14
2019-04-21T03:51:07.759Z,98593.03
2019-04-21T03:52:11.983Z,98593.03
2019-04-21T03:54:16.114Z,98592.55
2019-04-21T03:57:51.745Z,98585.23
2019-04-21T03:58:47.054Z,98585.25
2019-04-21T03:59:50.452Z,98582.90
2019-04-21T04:01:09.804Z,98582.90
2019-04-21T04:02:35.023Z,98583.98
2019-04-21T04:03:55.347Z,98583.98
2019-04-21T04:04:52.716Z,98592.19
2019-04-21T04:09:19.464Z,98581.96
2019-04-21T04:10:11.779Z,98581.26
2019-04-21T04:12:23.125Z,98578.54
2019-04-21T04:13:37.290Z,98579.78
2019-04-21T04:14:42.454Z,98586.36
2019-04-21T04:16:49.456Z,98577.83
2019-04-21T04:17:41.170Z,98576.16
2019-04-21T04:18:52.871Z,98575.19
2019-04-21T04:20:01.375Z,98575.35
2019-04-21T04:21:10.181Z,98573.83
2019-04-21T04:23:07.976Z,98574.42
2019-04-21T04:24:34.268Z,98574.42
2019-04-21T04:25:18.867Z,98572.69
2019-04-21T04:28:50.163Z,98572.45
2019-04-21T04:29:39.679Z,98572.45
2019-04-21T04:30:45.430Z,98569.91
2019-04-21T04:31:53.447Z,98575.11
2019-04-21T04:33:00.581Z,98569.97
2019-04-21T04:36:30.442Z,98575.90
2019-04-21T04:39:48.486Z,98573.63
2019-04-21T04:43:35.100Z,98573.10
2019-04-21T04:44:59.722Z,98577.08
2019-04-21T04:45:48.265Z,98577.08
2019-04-21T04:46:55.794Z,98573.48
2019-04-21T04:49:25.228Z,98571.22
2019-04-21T04:50:33.158Z,98571.22
2019-04-21T04:51:48.309Z,98571.70
2019-04-21T04:55:46.084Z,98572.56
2019-04-21T04:56:56.364Z,98572.73
2019-04-21T05:01:23.078Z,98568.84
2019-04-21T05:02:31.766Z,98567.48
2019-04-21T05:03:41.896Z,98566.69
2019-04-21T05:04:35.515Z,98568.05
2019-04-21T05:05:55.725Z,98568.05
2019-04-21T05:07:50.518Z,98567.65
2019-04-21T05:09:04.304Z,98566.23
2019-04-21T05:11:08.575Z,98569.09
2019-04-21T05:13:21.306Z,98566.23
2019-04-21T05:14:18.299Z,98566.55
2019-04-21T05:15:19.513Z,98570.37
2019-04-21T05:17:37.789Z,98564.00
2019-04-21T05:18:43.842Z,98560.91
2019-04-21T05:19:57.242Z,98560.91
2019-04-21T05:20:53.272Z,98567.50
2019-04-21T05:21:48.353Z,98567.50
2019-04-21T05:22:53.080Z,98560.70
2019-04-21T05:23:52.538Z,98565.12
2019-04-21T05:24:55.317Z,98562.63
2019-04-21T05:26:01.304Z,98564.55
2019-04-21T05:27:08.614Z,98563.66
2019-04-21T05:28:10.258Z,98560.28
2019-04-21T05:29:15.842Z,98557.06
2019-04-21T05:44:35.400Z,98559.16
2019-04-21T05:45:33.463Z,98564.18
2019-04-21T05:46:49.230Z,98560.51
2019-04-21T05:49:15.396Z,98558.72
2019-04-21T05:50:19.208Z,98558.72
2019-04-21T05:51:25.850Z,98565.40
2019-04-21T05:52:27.782Z,98562.95
2019-04-21T05:54:03.551Z,98564.00
2019-04-21T05:54:44.341Z,98564.93
2019-04-21T05:56:51.630Z,98568.09
2019-04-21T05:57:58.305Z,98561.27
2019-04-21T05:58:58.128Z,98561.10
2019-04-21T06:00:01.268Z,98561.10
2019-04-21T06:02:28.951Z,98568.05
2019-04-21T06:03:44.306Z,98551.87
2019-04-21T06:04:56.617Z,98551.87
2019-04-21T06:05:53.330Z,98561.58
2019-04-21T06:06:47.684Z,98561.58
2019-04-21T06:07:52.520Z,98556.08
2019-04-21T06:08:58.413Z,98556.08
2019-04-21T06:10:20.450Z,98553.61
2019-04-21T06:11:13.128Z,98555.23
2019-04-21T06:12:13.114Z,98552.78
2019-04-21T06:13:28.177Z,98552.78
2019-04-21T06:14:29.420Z,98550.34
2019-04-21T06:15:37.118Z,98552.91
2019-04-21T06:16:43.382Z,98545.09
2019-04-21T06:17:47.253Z,98549.53
2019-04-21T06:18:53.008Z,98550.72
2019-04-21T06:19:59.141Z,98545.16
2019-04-21T06:21:05.582Z,98545.16
2019-04-21T06:22:10.490Z,98543.84
2019-04-21T06:23:20.482Z,98547.67
2019-04-21T06:24:20.530Z,98542.91
2019-04-21T06:25:54.585Z,98540.77
2019-04-21T06:26:52.084Z,98536.87
2019-04-21T06:27:51.157Z,98528.30
2019-04-21T06:28:47.235Z,98541.02
2019-04-21T06:29:52.749Z,98536.57
2019-04-21T06:31:00.073Z,98530.20
2019-04-21T06:32:26.883Z,98530.78
2019-04-21T06:32:59.012Z,98534.06
2019-04-21T06:34:03.717Z,98530.98
2019-04-21T06:35:58.808Z,98526.69
2019-04-21T06:37:14.658Z,98521.77
2019-04-21T06:38:10.443Z,98527.64
2019-04-21T06:40:21.089Z,98520.47
2019-04-21T06:41:26.460Z,98520.47
2019-04-21T06:42:25.502Z,98522.41
2019-04-21T06:43:33.313Z,98518.43
2019-04-21T06:44:35.168Z,98519.23
2019-04-21T06:45:44.769Z,98518.06
2019-04-21T06:46:45.689Z,98515.43
2019-04-21T06:47:53.983Z,98523.91
2019-04-21T06:48:55.760Z,98519.48
2019-04-21T06:49:53.818Z,98518.42
2019-04-21T06:51:06.875Z,98518.42
2019-04-21T06:52:17.867Z,98511.30
2019-04-21T06:53:10.815Z,98516.25
2019-04-21T06:54:16.139Z,98516.45
2019-04-21T06:55:20.119Z,98515.92
2019-04-21T06:56:34.765Z,98515.92
2019-04-21T06:57:28.964Z,98511.69
2019-04-21T06:58:31.995Z,98518.12
2019-04-21T06:59:37.212Z,98513.77
2019-04-21T07:00:42.447Z,98517.48
2019-04-21T07:01:55.325Z,98517.48
2019-04-21T07:03:01.481Z,98515.00
2019-04-21T07:04:05.764Z,98500.24
2019-04-21T07:05:07.557Z,98502.09
2019-04-21T07:06:13.093Z,98502.09
2019-04-21T07:07:18.764Z,98501.14
2019-04-21T07:08:32.757Z,98501.25
2019-04-21T07:09:25.448Z,98506.84
2019-04-21T07:10:44.807Z,98506.84
2019-04-21T07:11:33.143Z,98499.91
2019-04-21T07:12:42.990Z,98504.78
2019-04-21T07:18:27.618Z,98498.80
2019-04-21T07:19:34.676Z,98493.26
2019-04-21T07:20:36.271Z,98492.88
2019-04-21T07:21:45.764Z,98492.88
2019-04-21T07:22:50.902Z,98489.56
2019-04-21T07:23:53.550Z,98492.80
2019-04-21T07:24:58.922Z,98491.61
2019-04-21T07:26:03.177Z,98489.17
2019-04-21T07:27:08.831Z,98491.11
2019-04-21T07:28:15.498Z,98490.24
2019-04-21T07:29:25.797Z,98479.97
2019-04-21T07:30:25.624Z,98475.78
2019-04-21T07:31:33.142Z,98481.25
2019-04-21T07:32:36.466Z,98479.70
2019-04-21T07:33:53.799Z,98479.33
2019-04-21T07:34:44.851Z,98474.99
2019-04-21T07:35:46.086Z,98477.29
2019-04-21T07:36:54.843Z,98476.92
2019-04-21T07:38:01.296Z,98475.96
2019-04-21T07:40:01.892Z,98479.08
2019-04-21T07:41:02.151Z,98477.31
2019-04-21T07:42:13.514Z,98473.07
2019-04-21T07:43:10.773Z,98472.32
2019-04-21T07:44:18.178Z,98471.95
2019-04-21T07:45:22.713Z,98471.95
2019-04-21T07:46:28.933Z,98468.31
2019-04-21T07:47:50.703Z,98473.02
2019-04-21T07:49:01.644Z,98466.00
2019-04-21T07:50:14.933Z,98466.00
2019-04-21T07:51:32.253Z,98470.19
2019-04-21T07:53:05.218Z,98466.78
2019-04-21T07:54:01.824Z,98462.23
2019-04-21T07:55:22.067Z,98462.23
2019-04-21T07:55:51.128Z,98465.24
2019-04-21T07:57:11.601Z,98459.89
2019-04-21T07:58:14.810Z,98455.95
2019-04-21T07:59:31.537Z,98452.89
2019-04-21T08:01:30.720Z,98456.31
2019-04-21T08:02:38.621Z,98450.23
2019-04-21T08:03:50.103Z,98454.16
2019-04-21T08:05:09.579Z,98454.78
2019-04-21T08:05:54.788Z,98453.95
2019-04-21T08:07:15.032Z,98446.36
2019-04-21T08:07:56.085Z,98457.33
2019-04-21T08:09:07.382Z,98455.68
2019-04-21T08:10:10.472Z,98455.68
2019-04-21T08:11:09.600Z,98448.53
2019-04-21T08:12:16.024Z,98447.25
2019-04-21T08:13:28.868Z,98437.52
2019-04-21T08:14:28.654Z,98449.83
2019-04-21T08:15:33.989Z,98448.82
2019-04-21T08:16:36.766Z,98447.66
2019-04-21T08:17:43.349Z,98437.43
2019-04-21T08:18:45.509Z,98441.91
2019-04-21T08:19:48.766Z,98439.28
2019-04-21T08:20:54.482Z,98442.41
2019-04-21T08:22:09.567Z,98435.09
2019-04-21T08:23:07.066Z,98435.09
2019-04-21T08:24:08.826Z,98438.92
2019-04-21T08:25:14.874Z,98434.55
2019-04-21T08:26:22.947Z,98431.35
2019-04-21T08:27:32.097Z,98431.35
2019-04-21T08:28:35.569Z,98428.41
2019-04-21T08:29:44.085Z,98428.41
2019-04-21T08:30:36.501Z,98438.72
2019-04-21T08:31:58.714Z,98421.47
2019-04-21T08:33:10.663Z,98421.47
2019-04-21T08:35:23.932Z,98431.57
2019-04-21T08:36:17.810Z,98426.55
2019-04-21T08:37:15.058Z,98426.55
2019-04-21T08:38:21.896Z,98422.95
2019-04-21T08:39:31.516Z,98426.24
2019-04-21T08:40:36.823Z,98426.24
2019-04-21T08:41:40.772Z,98418.09
2019-04-21T08:42:49.088Z,98422.63
2019-04-21T08:44:03.839Z,98413.30
2019-04-21T08:44:54.378Z,98413.83
2019-04-21T08:46:03.587Z,98421.73
2019-04-21T08:47:07.487Z,98419.13
2019-04-21T08:48:10.580Z,98414.05
2019-04-21T08:49:15.629Z,98418.57
2019-04-21T08:50:20.505Z,98414.19
2019-04-21T08:51:33.103Z,98418.48
2019-04-21T08:52:42.913Z,98416.69
2019-04-21T08:53:42.891Z,98411.70
2019-04-21T08:54:53.624Z,98411.70
2019-04-21T08:56:13.116Z,98407.79
2019-04-21T08:57:48.786Z,98407.47
2019-04-21T08:59:28.878Z,98407.47
2019-04-21T09:00:51.395Z,98410.38
2019-04-21T09:01:57.227Z,98410.38
2019-04-21T09:03:06.431Z,98407.00
2019-04-21T09:04:16.613Z,98400.77
2019-04-21T09:05:17.509Z,98395.04
2019-04-21T09:06:31.709Z,98395.04
2019-04-21T09:07:32.179Z,98401.37
2019-04-21T09:08:31.672Z,98394.94
2019-04-21T09:09:41.637Z,98391.08
2019-04-21T09:10:48.530Z,98391.33
2019-04-21T09:11:54.076Z,98391.33
2019-04-21T09:12:51.785Z,98393.22
2019-04-21T09:14:05.213Z,98398.42
2019-04-21T09:15:09.919Z,98399.21
2019-04-21T09:16:06.302Z,98399.21
2019-04-21T09:17:06.573Z,98394.77
2019-04-21T09:18:13.356Z,98390.97
2019-04-21T09:19:33.964Z,98394.06
2019-04-21T09:20:33.778Z,98394.06
2019-04-21T09:21:39.420Z,98385.37
2019-04-21T09:22:44.269Z,98385.19
2019-04-21T09:25:25.344Z,98390.98
2019-04-21T09:26:27.096Z,98389.48
2019-04-21T09:27:29.463Z,98389.48
2019-04-21T09:28:25.535Z,98387.29
2019-04-21T09:29:26.446Z,98387.69
2019-04-21T09:30:23.980Z,98388.51
2019-04-21T09:31:35.452Z,98382.72
2019-04-21T09:32:36.663Z,98380.73
2019-04-21T09:33:45.407Z,98380.73
2019-04-21T09:34:49.277Z,98380.02
2019-04-21T09:36:01.030Z,98385.40
2019-04-21T09:37:15.356Z,98384.02
2019-04-21T09:38:16.198Z,98379.52
2019-04-21T09:39:16.143Z,98377.50
2019-04-21T09:40:20.474Z,98377.50
2019-04-21T09:41:24.099Z,98362.85
2019-04-21T09:42:34.552Z,98374.38
2019-04-21T09:43:39.524Z,98373.55
2019-04-21T09:44:38.601Z,98375.36
2019-04-21T09:45:40.718Z,98369.26
2019-04-21T09:46:50.567Z,98364.23
2019-04-21T09:48:00.876Z,98374.09
2019-04-21T09:49:03.780Z,98361.94
2019-04-21T09:50:10.295Z,98363.42
2019-04-21T09:51:13.483Z,98354.94
2019-04-21T09:52:20.943Z,98362.19
2019-04-21T09:53:29.429Z,98362.19
2019-04-21T09:54:31.299Z,98357.28
2019-04-21T09:55:43.971Z,98347.22
2019-04-21T09:56:52.393Z,98347.22
2019-04-21T09:57:53.373Z,98350.56
2019-04-21T09:58:58.121Z,98352.94
2019-04-21T10:00:06.724Z,98352.75
2019-04-21T10:01:15.665Z,98360.27
2019-04-21T10:02:18.197Z,98360.27
2019-04-21T10:03:19.082Z,98344.03
2019-04-21T10:04:21.558Z,98352.75
2019-04-21T10:05:25.236Z,98347.55
2019-04-21T10:06:28.479Z,98347.55
2019-04-21T10:07:38.276Z,98340.45
2019-04-21T10:08:40.289Z,98338.72
2019-04-21T10:09:43.602Z,98332.55
2019-04-21T10:10:46.899Z,98332.55
2019-04-21T10:11:50.475Z,98334.19
2019-04-21T10:12:56.421Z,98334.33
2019-04-21T10:13:59.315Z,98331.71
2019-04-21T10:15:02.303Z,98344.16
2019-04-21T10:16:24.200Z,98344.16
2019-04-21T10:17:34.769Z,98323.18
2019-04-21T10:18:37.986Z,98330.72
2019-04-21T10:19:41.876Z,98329.18
2019-04-21T10:20:44.907Z,98320.78
2019-04-21T10:21:52.067Z,98320.56
2019-04-21T10:23:00.544Z,98320.56
2019-04-21T10:24:06.279Z,98318.56
2019-04-21T10:25:12.602Z,98321.58
2019-04-21T10:26:16.499Z,98321.58
2019-04-21T10:27:19.577Z,98305.32
2019-04-21T10:28:23.311Z,98306.50
2019-04-21T10:29:31.247Z,98306.50
2019-04-21T10:42:46.361Z,98291.50
2019-04-21T10:43:49.376Z,98290.75
2019-04-21T10:44:54.876Z,98290.75
2019-04-21T10:45:58.931Z,98293.04
2019-04-21T10:47:02.624Z,98295.02
2019-04-21T10:48:07.217Z,98292.16
2019-04-21T10:49:19.476Z,98292.16
2019-04-21T10:50:22.641Z,98296.69
2019-04-21T10:51:25.603Z,98290.22
2019-04-21T10:52:47.236Z,98290.22
2019-04-21T10:53:53.928Z,98287.55
2019-04-21T10:55:20.881Z,98287.55
2019-04-21T10:56:13.604Z,98281.92
2019-04-21T10:57:12.679Z,98282.53
2019-04-21T10:58:22.676Z,98274.24
2019-04-21T10:59:26.803Z,98274.24
2019-04-21T11:00:32.310Z,98275.77
2019-04-21T11:01:35.321Z,98269.22
2019-04-21T11:02:52.837Z,98272.78
2019-04-21T11:04:21.818Z,98272.78
2019-04-21T11:05:20.798Z,98271.16
2019-04-21T11:06:24.487Z,98273.78
2019-04-21T11:07:58.941Z,98273.78
2019-04-21T11:08:55.434Z,98266.72
2019-04-21T11:09:56.058Z,98263.91
2019-04-21T11:11:06.013Z,98265.11
2019-04-21T11:12:13.546Z,98248.63
2019-04-21T11:13:16.643Z,98258.62
2019-04-21T11:14:21.018Z,98258.62
2019-04-21T11:15:29.478Z,98265.33
2019-04-21T11:16:37.211Z,98259.95
2019-04-21T11:17:45.543Z,98250.14
2019-04-21T11:18:48.235Z,98255.39
2019-04-21T11:19:54.837Z,98255.39
2019-04-21T11:20:58.813Z,98255.98
2019-04-21T11:22:02.871Z,98246.69
2019-04-21T11:23:06.209Z,98247.74
2019-04-21T11:24:10.248Z,98256.25
2019-04-21T11:25:13.527Z,98257.11
2019-04-21T11:26:17.678Z,98253.05
2019-04-21T11:27:20.870Z,98253.05
2019-04-21T11:28:24.836Z,98246.54
2019-04-21T11:29:28.590Z,98246.54
2019-04-21T11:30:33.658Z,98244.24
2019-04-21T11:31:38.965Z,98236.86
2019-04-21T11:32:49.435Z,98246.47
2019-04-21T11:33:57.417Z,98246.47
2019-04-21T11:35:01.205Z,98221.14
2019-04-21T11:36:07.159Z,98221.14
2019-04-21T11:37:19.930Z,98220.36
2019-04-21T11:38:30.495Z,98233.11
2019-04-21T11:39:46.027Z,98233.39
2019-04-21T11:40:43.421Z,98233.39
2019-04-21T11:41:49.842Z,98230.92
2019-04-21T11:42:57.645Z,98230.92
2019-04-21T11:44:01.430Z,98221.78
2019-04-21T11:45:06.184Z,98225.27
2019-04-21T11:46:09.049Z,98224.01
2019-04-21T11:47:20.533Z,98224.01
2019-04-21T11:48:28.480Z,98219.53
2019-04-21T11:49:32.549Z,98219.50
2019-04-21T11:50:35.542Z,98215.67
2019-04-21T11:51:44.983Z,98211.94
2019-04-21T11:52:50.275Z,98209.25
2019-04-21T11:53:56.879Z,98209.25
2019-04-21T11:55:00.551Z,98214.06
2019-04-21T11:56:04.853Z,98217.25
2019-04-21T11:57:14.077Z,98210.55
2019-04-21T11:58:12.229Z,98206.88
2019-04-21T11:59:15.535Z,98216.62
2019-04-21T12:00:21.790Z,98200.92
2019-04-21T12:01:29.748Z,98205.38
2019-04-21T12:02:33.268Z,98205.02
2019-04-21T12:03:37.646Z,98205.02
2019-04-21T12:04:41.258Z,98207.12
2019-04-21T12:05:45.540Z,98210.61
2019-04-21T12:06:55.595Z,98208.09
2019-04-21T12:07:58.450Z,98208.20
2019-04-21T12:09:04.583Z,98206.19
2019-04-21T12:10:07.024Z,98206.19
2019-04-21T12:11:09.909Z,98206.48
2019-04-21T12:12:12.739Z,98205.55
2019-04-21T12:13:24.437Z,98194.02
2019-04-21T12:14:27.989Z,98197.86
2019-04-21T12:15:31.470Z,98197.86
2019-04-21T12:16:35.106Z,98195.53
2019-04-21T12:17:41.798Z,98200.20
2019-04-21T12:18:45.138Z,98197.70
2019-04-21T12:19:48.561Z,98194.00
2019-04-21T12:20:51.691Z,98191.98
2019-04-21T12:22:07.130Z,98195.06
2019-04-21T12:23:04.994Z,98186.89
2019-04-21T12:24:19.434Z,98186.89
2019-04-21T12:25:23.000Z,98188.56
2019-04-21T12:26:26.393Z,98188.56
2019-04-21T12:27:31.894Z,98184.12
2019-04-21T12:28:38.109Z,98184.49
2019-04-21T12:29:46.100Z,98184.49
2019-04-21T12:30:55.795Z,98173.97
2019-04-21T12:32:18.043Z,98169.19
2019-04-21T12:33:40.244Z,98169.19
2019-04-21T12:34:43.794Z,98172.47
2019-04-21T12:35:48.065Z,98169.88
2019-04-21T12:36:51.098Z,98169.88
2019-04-21T12:37:58.500Z,98164.08
2019-04-21T12:39:06.763Z,98157.05
2019-04-21T12:40:12.591Z,98163.77
2019-04-21T12:41:15.968Z,98164.58
2019-04-21T12:42:24.842Z,98164.58
2019-04-21T12:43:30.598Z,98161.70
2019-04-21T12:44:33.601Z,98155.61
2019-04-21T12:45:37.868Z,98149.61
2019-04-21T12:46:41.171Z,98146.11
2019-04-21T12:47:50.667Z,98146.44
2019-04-21T12:48:56.230Z,98146.44
2019-04-21T12:50:05.079Z,98144.66
2019-04-21T12:51:03.933Z,98148.86
2019-04-21T12:52:09.354Z,98138.42
2019-04-21T12:53:27.683Z,98141.41
2019-04-21T12:54:30.628Z,98144.56
2019-04-21T12:55:42.470Z,98135.52
2019-04-21T12:56:41.767Z,98132.95
2019-04-21T12:57:45.467Z,98132.95
2019-04-21T12:58:55.315Z,98133.28
2019-04-21T13:00:02.788Z,98126.73
2019-04-21T13:01:07.143Z,98126.53
2019-04-21T13:02:15.830Z,98119.98
2019-04-21T13:03:24.833Z,98129.66
2019-04-21T13:04:33.333Z,98129.66
2019-04-21T13:05:40.006Z,98113.99
2019-04-21T13:06:43.547Z,98115.64
2019-04-21T13:07:49.353Z,98105.77
2019-04-21T13:09:01.375Z,98109.92
2019-04-21T13:10:02.321Z,98109.92
2019-04-21T13:11:06.821Z,98100.55
2019-04-21T13:12:11.101Z,98103.43
2019-04-21T13:13:20.067Z,98103.43
2019-04-21T13:14:26.032Z,98101.39
2019-04-21T13:15:27.512Z,98098.24
2019-04-21T13:16:31.569Z,98087.55
2019-04-21T13:17:37.264Z,98087.55
2019-04-21T13:18:42.609Z,98093.80
2019-04-21T13:19:47.352Z,98095.80
2019-04-21T13:20:50.191Z,98095.80
2019-04-21T13:21:54.017Z,98092.70
2019-04-21T13:22:59.960Z,98088.40
2019-04-21T13:24:05.620Z,98090.08
2019-04-21T13:25:09.603Z,98079.55
2019-04-21T13:26:15.090Z,98075.70
2019-04-21T13:27:20.540Z,98081.84
2019-04-21T13:28:24.832Z,98076.66
2019-04-21T13:29:28.180Z,98071.94
2019-04-21T13:30:32.643Z,98073.83
2019-04-21T13:31:42.579Z,98067.95
2019-04-21T13:32:45.203Z,98073.90
2019-04-21T13:33:48.179Z,98068.00
2019-04-21T13:34:52.765Z,98082.11
2019-04-21T13:35:57.232Z,98076.08
2019-04-21T13:37:03.516Z,98063.04
2019-04-21T13:38:18.807Z,98064.39
2019-04-21T13:41:05.376Z,98066.92
2019-04-21T13:42:06.652Z,98062.51
2019-04-21T13:43:05.801Z,98062.51
2019-04-21T13:44:13.313Z,98050.74
2019-04-21T13:45:16.437Z,98049.08
2019-04-21T13:46:20.679Z,98045.83
2019-04-21T13:47:24.831Z,98052.42
2019-04-21T13:48:28.648Z,98033.44
2019-04-21T13:49:32.257Z,98033.44
2019-04-21T13:50:37.664Z,98051.91
2019-04-21T13:51:41.654Z,98036.95
2019-04-21T13:52:44.913Z,98044.80
2019-04-21T13:53:49.667Z,98044.56
2019-04-21T13:54:55.904Z,98028.56
2019-04-21T13:56:00.556Z,98028.56
2019-04-21T13:57:04.904Z,98057.98
2019-04-21T13:58:08.536Z,98057.98
2019-04-21T13:59:11.560Z,98037.05
2019-04-21T14:00:15.155Z,98034.43
2019-04-21T14:01:21.349Z,98034.43
2019-04-21T14:02:34.490Z,98030.22
2019-04-21T14:03:37.745Z,98022.97
2019-04-21T14:04:41.208Z,98022.97
2019-04-21T14:05:44.812Z,98026.05
2019-04-21T14:06:50.168Z,98024.94
2019-04-21T14:07:56.480Z,98026.64
2019-04-21T14:09:03.141Z,98027.99
2019-04-21T14:10:09.935Z,98027.99
2019-04-21T14:11:11.388Z,98028.80
2019-04-21T14:12:19.361Z,98027.34
2019-04-21T14:13:24.712Z,98027.34
2019-04-21T14:14:28.369Z,98025.55
2019-04-21T14:15:32.429Z,98025.55
2019-04-21T14:16:36.115Z,98021.89
2019-04-21T14:17:39.261Z,98017.19
2019-04-21T14:18:45.498Z,98014.38
2019-04-21T14:19:48.987Z,98013.00
2019-04-21T14:21:03.175Z,98015.20
2019-04-21T14:22:14.147Z,98008.75
2019-04-21T14:23:28.554Z,98009.00
2019-04-21T14:24:25.183Z,98009.00
2019-04-21T14:25:28.257Z,98013.17
2019-04-21T14:26:32.147Z,98011.22
2019-04-21T14:27:36.559Z,98011.22
2019-04-21T14:28:41.381Z,98009.78
2019-04-21T14:29:46.969Z,98009.69
2019-04-21T14:30:54.369Z,98009.69
2019-04-21T14:31:58.076Z,98011.23
2019-04-21T14:33:02.242Z,98002.92
2019-04-21T14:34:12.139Z,98006.97
2019-04-21T14:35:14.797Z,98006.97